Arlington, TN (38002)

6:42 AM CDT on September 01, 2015 (GMT -0500)
Bartlett-Rockyford | | Change Station
CLOSE
Current Station
Personal Weather Station
Location: Bartlett, TN
Elevation: 260 ft
Nearby Weather Stations

Elev 260 ft 35.27 °N, 89.84 °W | Updated 2 seconds ago

Partly Cloudy
Partly Cloudy
69.2 °F
Feels Like 69.2 °F
N
0.0
Wind Variable Wind from NNE
Gusts 0.0 mph

Today
High -- | Low -- °F
--% Chance of Precip.
Yesterday
High -- | Low -- °F
Precip. -- in
6:31 AM 7:26 PM
Waning Gibbous, 89% visible
Pressure 30.09 in
Visibility 10.0 miles
Clouds Clear
Dew Point 68 °F
Humidity 96%
Rainfall 0.00 in
Snow Depth Not available.
UV 0 out of 12
Pollen 9.70 out of 12
Air Quality Not available.
Flu Activity Not available.
METAR KNQA 011050Z 00000KT 10SM SKC 22/22 A3009
Pressure 30.09 in
Visibility 10.0 miles
Clouds Clear
Dew Point 68 °F
Humidity 96%
Rainfall 0.00 in
Snow Depth Not available.
UV 0 out of 12
Pollen 9.70 out of 12
Air Quality Not available.
Flu Activity Not available.
METAR KNQA 011050Z 00000KT 10SM SKC 22/22 A3009

10-Day Weather Forecast

×

Almanac

Astronomy

Sep. 01, 2015 Rise Set
Actual Time
Civil Twilight
Nautical Twilight
Astronomical Twilight
Moon
Length of Visible Light
Length of Day
Tomorrow will be .
, % of the Moon is Illuminated

Today's Extremes

State Highs State Lows

Community

WunderPhotos

Upload Photos

1,851,506 photos uploaded!

WunderBlogs® & News

Nearby

Air Quality

  Air Quality AQ Index Pollutant
Not available.

Snow Depth

Station Depth Elevation

Earthquake Activity

City Distance Mag. Time & Date
Minimum magnitude displayed is 2.5.

Coastal Water Temperatures

Place Temperature

Stations

Nearby Weather Stations

Station Location Temp. Windchill Dew Point Humidity Wind Precip. Elev Updated Type